Time;durP1;ratioP1;P1;durP2;ratioP2;P2;SDS_P1;SDS_P2;PMS_P1;PMS_P2;Temp;Humidity;BMP_temperature;BMP_pressure;BME280_temperature;BME280_humidity;BME280_pressure;Samples;Min_cycle;Max_cycle;Signal;HPM_P1;HPM_P2
2021/07/23 00:00:58;;;;;;;11.18;7.03;;;19.90;92.20;;;;;;5096435;28;20028;-79
2021/07/23 00:03:24;;;;;;;12.65;7.30;;;19.90;92.10;;;;;;5095738;28;20526;-79
2021/07/23 00:05:50;;;;;;;11.77;7.20;;;19.80;92.10;;;;;;5060164;28;20119;-80
2021/07/23 00:08:15;;;;;;;11.48;7.05;;;19.90;92.20;;;;;;5057436;28;20078;-79
2021/07/23 00:10:41;;;;;;;12.18;7.25;;;19.90;92.30;;;;;;5056499;28;20025;-79
2021/07/23 00:13:06;;;;;;;12.45;6.93;;;19.90;92.60;;;;;;5075056;28;20023;-79
2021/07/23 00:15:32;;;;;;;14.13;6.88;;;19.80;92.70;;;;;;5075735;28;20055;-79
2021/07/23 00:17:58;;;;;;;11.95;7.03;;;19.80;92.90;;;;;;5067540;28;20051;-79
2021/07/23 00:20:23;;;;;;;11.82;7.10;;;19.70;93.20;;;;;;5068603;28;20499;-79
2021/07/23 00:22:49;;;;;;;13.38;7.25;;;19.70;93.30;;;;;;5057144;28;20029;-78
2021/07/23 00:25:14;;;;;;;11.38;6.88;;;19.70;93.40;;;;;;5075154;28;20035;-79
2021/07/23 00:27:40;;;;;;;14.48;7.47;;;19.70;93.30;;;;;;5056749;28;20021;-78
2021/07/23 00:30:07;;;;;;;11.57;6.75;;;19.70;93.00;;;;;;5056618;28;20040;-79
2021/07/23 00:32:35;;;;;;;13.55;6.70;;;19.70;93.20;;;;;;5057216;28;20610;-79
2021/07/23 00:35:01;;;;;;;10.88;6.75;;;19.70;93.30;;;;;;5074977;28;20055;-79
2021/07/23 00:37:26;;;;;;;13.45;7.18;;;19.60;93.20;;;;;;5074134;28;20025;-79
2021/07/23 00:39:52;;;;;;;10.77;7.53;;;19.60;93.50;;;;;;5074560;28;20028;-79
2021/07/23 00:42:18;;;;;;;13.27;7.10;;;19.60;93.70;;;;;;5094716;28;20056;-79
2021/07/23 00:44:43;;;;;;;12.90;7.32;;;19.60;93.80;;;;;;5095264;28;20028;-78
2021/07/23 00:47:09;;;;;;;12.77;6.80;;;19.50;93.80;;;;;;5065620;28;20021;-79
2021/07/23 00:49:34;;;;;;;13.20;7.53;;;19.50;93.90;;;;;;5074415;28;20480;-79
2021/07/23 00:52:00;;;;;;;12.38;6.82;;;19.50;93.90;;;;;;5090987;28;20020;-79
2021/07/23 00:54:27;;;;;;;10.95;7.00;;;19.50;94.00;;;;;;5093354;28;20031;-79
2021/07/23 00:56:53;;;;;;;13.98;7.70;;;19.50;94.20;;;;;;5083153;28;20028;-79
2021/07/23 00:59:19;;;;;;;13.60;7.00;;;19.40;94.10;;;;;;5076422;28;20133;-79
2021/07/23 01:01:46;;;;;;;12.48;7.20;;;19.40;94.00;;;;;;5076729;28;20038;-80
2021/07/23 01:04:11;;;;;;;14.02;7.97;;;19.40;94.10;;;;;;5073466;28;20091;-79
2021/07/23 01:06:37;;;;;;;12.43;6.88;;;19.30;94.20;;;;;;5056571;28;20048;-80
2021/07/23 01:09:03;;;;;;;12.63;7.57;;;19.30;94.30;;;;;;5073691;28;20025;-79
2021/07/23 01:11:29;;;;;;;13.88;7.30;;;19.30;94.00;;;;;;5071095;28;20055;-79
2021/07/23 01:13:55;;;;;;;10.73;6.82;;;19.30;94.20;;;;;;5074250;28;20095;-79
2021/07/23 01:16:21;;;;;;;11.60;6.88;;;19.20;94.20;;;;;;5056354;28;20056;-78
2021/07/23 01:18:47;;;;;;;11.50;7.07;;;19.20;94.30;;;;;;5073617;28;20056;-79
2021/07/23 01:21:13;;;;;;;12.85;6.90;;;19.20;94.40;;;;;;5060386;28;20488;-79
2021/07/23 01:23:40;;;;;;;11.80;7.38;;;19.20;94.30;;;;;;5074257;28;20032;-79
2021/07/23 01:26:06;;;;;;;10.95;6.93;;;19.30;94.40;;;;;;5073962;28;20025;-79
2021/07/23 01:28:34;;;;;;;16.23;6.55;;;19.30;94.60;;;;;;5072116;28;20047;-79
2021/07/23 01:31:03;;;;;;;11.68;7.07;;;19.30;94.60;;;;;;5073793;28;20032;-79
2021/07/23 01:33:29;;;;;;;13.40;6.65;;;19.30;94.50;;;;;;5055907;28;20044;-79
2021/07/23 01:35:55;;;;;;;11.65;7.30;;;19.30;94.50;;;;;;5056473;28;20032;-79
2021/07/23 01:38:25;;;;;;;12.00;7.07;;;19.30;94.80;;;;;;5074074;28;20036;-79
2021/07/23 01:40:53;;;;;;;12.32;6.72;;;19.20;94.90;;;;;;5062755;28;20044;-79
2021/07/23 01:43:19;;;;;;;12.57;7.35;;;19.20;94.90;;;;;;5075323;28;20319;-79
2021/07/23 01:45:44;;;;;;;11.40;6.85;;;19.20;94.90;;;;;;5094581;28;20028;-80
2021/07/23 01:48:10;;;;;;;11.48;7.45;;;19.10;94.90;;;;;;5074151;28;20433;-79
2021/07/23 01:50:35;;;;;;;11.55;7.00;;;19.00;95.10;;;;;;5093944;28;20020;-79
2021/07/23 01:53:01;;;;;;;11.77;6.63;;;19.00;95.30;;;;;;5094357;28;20035;-79
2021/07/23 01:55:27;;;;;;;10.35;6.78;;;19.00;95.40;;;;;;5094771;28;20047;-80
2021/07/23 01:57:53;;;;;;;11.30;6.70;;;19.00;95.60;;;;;;5085493;28;20372;-80
2021/07/23 02:00:19;;;;;;;11.05;6.68;;;19.00;95.50;;;;;;5056243;28;20028;-80
2021/07/23 02:02:44;;;;;;;14.40;7.30;;;19.00;95.60;;;;;;5073642;28;20040;-80
2021/07/23 02:05:10;;;;;;;11.05;7.35;;;18.90;95.90;;;;;;5078493;28;20016;-79
2021/07/23 02:07:36;;;;;;;13.32;7.55;;;18.80;96.00;;;;;;5055903;28;20036;-80
2021/07/23 02:10:04;;;;;;;11.05;6.57;;;18.80;96.10;;;;;;5070986;28;20107;-80
2021/07/23 02:12:30;;;;;;;11.55;7.40;;;18.80;96.20;;;;;;5055815;28;20032;-80
2021/07/23 02:14:55;;;;;;;10.75;6.70;;;18.80;96.30;;;;;;5074174;28;20032;-79
2021/07/23 02:17:21;;;;;;;12.80;7.32;;;18.70;96.40;;;;;;5072800;28;20028;-79
2021/07/23 02:19:47;;;;;;;12.27;7.78;;;18.60;96.50;;;;;;5071769;28;20422;-79
2021/07/23 02:22:13;;;;;;;12.00;6.80;;;18.60;96.60;;;;;;5078380;28;20020;-80
2021/07/23 02:24:38;;;;;;;11.98;6.40;;;18.60;96.70;;;;;;5093736;28;20024;-79
2021/07/23 02:27:04;;;;;;;12.63;6.93;;;18.50;96.80;;;;;;5094325;28;20095;-80
2021/07/23 02:29:29;;;;;;;11.85;6.97;;;18.50;96.90;;;;;;5064088;28;20115;-79
2021/07/23 02:31:55;;;;;;;15.10;7.72;;;18.50;96.90;;;;;;5074247;28;20036;-79
2021/07/23 02:34:21;;;;;;;12.73;7.10;;;18.40;97.00;;;;;;5073491;28;20171;-79
2021/07/23 02:36:46;;;;;;;12.85;7.32;;;18.40;97.30;;;;;;5073865;28;20021;-79
2021/07/23 02:39:12;;;;;;;14.02;7.50;;;18.40;97.20;;;;;;5073462;28;20485;-79
2021/07/23 02:41:37;;;;;;;11.02;7.20;;;18.40;97.20;;;;;;5055872;28;20048;-80
2021/07/23 02:44:04;;;;;;;11.57;6.68;;;18.40;97.30;;;;;;5077010;28;20088;-79
2021/07/23 02:46:30;;;;;;;12.57;7.00;;;18.40;97.40;;;;;;5088176;28;20354;-79
2021/07/23 02:48:55;;;;;;;11.38;7.50;;;18.40;97.30;;;;;;5055880;28;20088;-80
2021/07/23 02:51:21;;;;;;;12.63;7.35;;;18.30;97.50;;;;;;5085281;28;20051;-79
2021/07/23 02:53:47;;;;;;;11.90;7.28;;;18.30;97.60;;;;;;5093483;28;20165;-79
2021/07/23 02:56:12;;;;;;;12.20;7.47;;;18.30;97.70;;;;;;5081519;28;20031;-79
2021/07/23 02:58:42;;;;;;;13.88;7.03;;;18.20;97.70;;;;;;5093120;28;20031;-79
2021/07/23 03:01:08;;;;;;;11.52;6.72;;;18.30;97.60;;;;;;5078612;28;20028;-79
2021/07/23 03:03:34;;;;;;;11.25;6.85;;;18.30;97.70;;;;;;5079063;28;20072;-80
2021/07/23 03:06:00;;;;;;;11.65;6.97;;;18.30;97.70;;;;;;5077152;28;20108;-79
2021/07/23 03:08:26;;;;;;;11.27;6.75;;;18.20;97.80;;;;;;5118104;22;20331;-77
2021/07/23 03:10:52;;;;;;;13.02;7.20;;;18.20;97.80;;;;;;5103001;27;20050;-78
2021/07/23 03:13:17;;;;;;;13.23;7.93;;;18.10;97.90;;;;;;5098084;28;20020;-78
2021/07/23 03:15:43;;;;;;;11.93;7.38;;;18.10;98.30;;;;;;5099085;28;20459;-78
2021/07/23 03:18:10;;;;;;;12.77;7.40;;;18.00;98.50;;;;;;5115653;27;20027;-78
2021/07/23 03:20:39;;;;;;;11.73;7.55;;;18.10;98.30;;;;;;5115984;28;20523;-78
2021/07/23 03:23:05;;;;;;;12.25;7.82;;;18.00;98.20;;;;;;5097500;28;20076;-78
2021/07/23 03:25:31;;;;;;;15.75;7.78;;;18.00;98.30;;;;;;5115972;28;20024;-78
2021/07/23 03:27:57;;;;;;;12.77;7.78;;;17.90;98.40;;;;;;5092656;28;20028;-78
2021/07/23 03:30:23;;;;;;;17.05;7.47;;;17.90;98.70;;;;;;5095369;28;20028;-78
2021/07/23 03:32:48;;;;;;;13.35;7.30;;;17.90;98.80;;;;;;5095536;28;20056;-78
2021/07/23 03:35:14;;;;;;;11.63;7.28;;;17.80;98.90;;;;;;5077048;28;20372;-78
2021/07/23 03:37:40;;;;;;;13.73;7.47;;;17.80;99.00;;;;;;5094375;28;20023;-78
2021/07/23 03:40:07;;;;;;;12.07;7.57;;;17.80;99.00;;;;;;5094398;28;20496;-78
2021/07/23 03:42:33;;;;;;;16.13;7.82;;;17.80;99.20;;;;;;5094427;28;20031;-77
2021/07/23 03:44:59;;;;;;;12.35;7.53;;;17.80;99.10;;;;;;5095648;28;20032;-78
2021/07/23 03:47:24;;;;;;;14.50;7.82;;;17.90;99.40;;;;;;5089684;27;20023;-78
2021/07/23 03:49:50;;;;;;;12.43;7.43;;;17.90;99.30;;;;;;5136168;27;20050;-78
2021/07/23 03:52:16;;;;;;;11.95;7.40;;;17.90;99.10;;;;;;5117317;27;20031;-78
2021/07/23 03:54:42;;;;;;;11.27;7.05;;;17.90;99.20;;;;;;5101316;28;20035;-78
2021/07/23 03:57:07;;;;;;;11.23;7.35;;;17.80;99.30;;;;;;5107384;28;20053;-78
2021/07/23 03:59:34;;;;;;;11.45;7.47;;;17.80;99.30;;;;;;5099116;28;20034;-78
2021/07/23 04:02:00;;;;;;;13.48;8.15;;;17.80;99.40;;;;;;5105570;28;20073;-78
2021/07/23 04:04:25;;;;;;;11.43;7.95;;;17.70;99.40;;;;;;5124435;27;20024;-78
2021/07/23 04:06:56;;;;;;;12.50;7.22;;;17.70;99.60;;;;;;5121803;27;20084;-78
2021/07/23 04:09:22;;;;;;;14.02;7.93;;;17.70;99.70;;;;;;5099175;28;20027;-78
2021/07/23 04:11:50;;;;;;;16.13;8.18;;;17.70;99.60;;;;;;5115730;27;20158;-78
2021/07/23 04:14:16;;;;;;;13.82;8.02;;;17.70;99.80;;;;;;5116590;27;20023;-78
2021/07/23 04:16:41;;;;;;;14.30;7.78;;;17.70;99.90;;;;;;5095023;28;20524;-78
2021/07/23 04:19:07;;;;;;;13.40;7.55;;;17.70;99.80;;;;;;5106302;27;20077;-78
2021/07/23 04:21:33;;;;;;;12.52;7.30;;;17.70;99.90;;;;;;5080543;28;20399;-78
2021/07/23 04:23:59;;;;;;;9.75;6.47;;;17.70;99.90;;;;;;5110449;27;20024;-78
2021/07/23 04:26:25;;;;;;;12.45;7.20;;;17.70;99.90;;;;;;5115802;27;20027;-78
2021/07/23 04:28:50;;;;;;;15.75;7.90;;;17.70;99.90;;;;;;5091936;27;20030;-77
2021/07/23 04:31:16;;;;;;;11.52;7.82;;;17.60;99.90;;;;;;5111378;27;20508;-78
2021/07/23 04:33:42;;;;;;;16.45;7.25;;;17.70;99.90;;;;;;5126483;27;20119;-78
2021/07/23 04:36:07;;;;;;;13.55;7.97;;;17.70;99.90;;;;;;5126319;27;20016;-78
2021/07/23 04:38:33;;;;;;;15.38;8.00;;;17.70;99.90;;;;;;5095313;28;20031;-78
2021/07/23 04:41:00;;;;;;;13.68;7.95;;;17.80;99.90;;;;;;5098449;28;20483;-78
2021/07/23 04:43:26;;;;;;;14.75;7.95;;;17.80;99.90;;;;;;5114021;27;20030;-78
2021/07/23 04:45:51;;;;;;;14.77;7.43;;;17.90;99.90;;;;;;5111744;27;20099;-79
2021/07/23 04:48:17;;;;;;;13.25;7.47;;;18.00;99.90;;;;;;5111856;28;20494;-78
2021/07/23 04:50:43;;;;;;;14.05;7.63;;;18.10;99.90;;;;;;5115283;27;20017;-78
2021/07/23 04:53:09;;;;;;;16.00;7.78;;;18.10;99.90;;;;;;5113507;27;20024;-78
2021/07/23 04:55:36;;;;;;;12.57;7.85;;;18.30;99.90;;;;;;5096658;27;20088;-78
2021/07/23 04:58:02;;;;;;;12.25;6.78;;;18.40;99.80;;;;;;5097395;28;20437;-78
2021/07/23 05:00:28;;;;;;;12.27;7.82;;;18.40;99.90;;;;;;5116910;27;20115;-78
2021/07/23 05:02:54;;;;;;;13.13;7.75;;;18.50;99.90;;;;;;5115215;27;20023;-78
2021/07/23 05:05:22;;;;;;;12.75;7.60;;;18.50;99.90;;;;;;5117078;27;20051;-78
2021/07/23 05:07:49;;;;;;;14.07;7.60;;;18.60;99.90;;;;;;5099057;27;20115;-78
2021/07/23 05:10:15;;;;;;;13.95;8.18;;;18.60;99.90;;;;;;5120164;27;20026;-78
2021/07/23 05:12:41;;;;;;;14.75;8.65;;;18.70;99.90;;;;;;5124187;27;20024;-78
2021/07/23 05:15:09;;;;;;;12.20;7.63;;;18.70;99.20;;;;;;5094312;28;20038;-78
2021/07/23 05:17:35;;;;;;;12.52;7.72;;;18.80;99.00;;;;;;5112644;27;20020;-78
2021/07/23 05:20:08;;;;;;;13.68;8.10;;;18.80;99.60;;;;;;5095598;27;20024;-78
2021/07/23 05:22:35;;;;;;;14.88;7.80;;;18.90;99.80;;;;;;5096135;28;20169;-78
2021/07/23 05:25:01;;;;;;;14.27;7.70;;;19.00;99.80;;;;;;5096020;27;20077;-79
2021/07/23 05:27:29;;;;;;;11.75;7.50;;;19.10;99.70;;;;;;5115424;27;20012;-78
2021/07/23 05:29:55;;;;;;;12.05;7.57;;;19.10;99.60;;;;;;5095256;28;20032;-78
2021/07/23 05:32:21;;;;;;;13.32;7.53;;;19.20;99.00;;;;;;5111226;27;20145;-78
2021/07/23 05:34:46;;;;;;;12.10;7.45;;;19.20;98.90;;;;;;5114990;27;20039;-78
2021/07/23 05:37:12;;;;;;;11.68;7.57;;;19.20;98.90;;;;;;5094295;28;20039;-79
2021/07/23 05:39:41;;;;;;;16.00;8.35;;;19.30;98.90;;;;;;5115607;27;20031;-78
2021/07/23 05:42:08;;;;;;;14.32;7.05;;;19.30;98.60;;;;;;5095132;28;20149;-78
2021/07/23 05:44:34;;;;;;;12.10;7.05;;;19.40;98.30;;;;;;5099174;28;20023;-78
2021/07/23 05:47:00;;;;;;;13.18;8.43;;;19.50;98.10;;;;;;5114068;28;20103;-78
2021/07/23 05:49:26;;;;;;;15.30;8.40;;;19.60;97.70;;;;;;5112101;28;20102;-78
2021/07/23 05:51:52;;;;;;;15.52;7.82;;;19.60;97.50;;;;;;5112912;28;20079;-78
2021/07/23 05:54:18;;;;;;;14.15;7.82;;;19.70;97.30;;;;;;5112065;28;20027;-78
2021/07/23 05:56:43;;;;;;;15.77;8.35;;;19.80;97.40;;;;;;5115579;28;20406;-78
2021/07/23 05:59:09;;;;;;;17.77;8.30;;;19.90;97.30;;;;;;5119868;28;20072;-78
2021/07/23 06:01:34;;;;;;;16.63;8.00;;;19.90;97.40;;;;;;5129920;28;20463;-78
2021/07/23 06:04:00;;;;;;;12.25;7.55;;;19.90;97.70;;;;;;5117533;28;20042;-78
2021/07/23 06:06:25;;;;;;;13.93;8.02;;;19.80;97.90;;;;;;5115937;28;20031;-78
2021/07/23 06:08:52;;;;;;;13.27;8.23;;;19.90;97.90;;;;;;5119264;28;20023;-78
2021/07/23 06:11:17;;;;;;;16.25;7.88;;;20.00;97.70;;;;;;5117232;28;20019;-79
2021/07/23 06:13:43;;;;;;;16.00;7.30;;;20.00;97.90;;;;;;5118915;28;20030;-78
2021/07/23 06:16:11;;;;;;;16.23;8.75;;;20.00;98.30;;;;;;5114430;28;20481;-78
2021/07/23 06:18:38;;;;;;;12.70;7.65;;;20.10;97.80;;;;;;5098096;28;20031;-79
2021/07/23 06:21:06;;;;;;;15.10;8.57;;;20.00;97.60;;;;;;5101594;28;20030;-78
2021/07/23 06:23:32;;;;;;;14.65;7.80;;;19.90;97.80;;;;;;5107358;28;20027;-78
2021/07/23 06:26:01;;;;;;;15.32;7.78;;;20.00;97.70;;;;;;5122544;28;20114;-79
2021/07/23 06:28:27;;;;;;;14.13;7.80;;;20.00;98.00;;;;;;5114799;28;20031;-78
2021/07/23 06:31:01;;;;;;;16.27;8.73;;;20.00;97.60;;;;;;5133440;28;20016;-78
2021/07/23 06:33:27;;;;;;;14.13;8.20;;;20.10;97.50;;;;;;5108234;28;20039;-78
2021/07/23 06:35:52;;;;;;;12.15;7.65;;;20.30;97.80;;;;;;5097622;28;20024;-78
2021/07/23 06:38:18;;;;;;;12.32;8.18;;;20.40;97.70;;;;;;5099190;27;20021;-78
2021/07/23 06:40:43;;;;;;;12.77;8.25;;;20.50;98.00;;;;;;5103762;27;20032;-78
2021/07/23 06:43:09;;;;;;;13.55;8.65;;;20.50;97.40;;;;;;5092521;27;20030;-78
2021/07/23 06:45:35;;;;;;;13.88;8.15;;;20.40;97.90;;;;;;5100209;27;20023;-78
2021/07/23 06:48:01;;;;;;;14.07;8.48;;;20.50;97.90;;;;;;5100253;27;20023;-78
2021/07/23 06:50:27;;;;;;;15.65;8.25;;;20.60;97.90;;;;;;5100612;27;20024;-78
2021/07/23 06:52:52;;;;;;;14.93;8.05;;;20.70;98.10;;;;;;5096213;27;20035;-78
2021/07/23 06:55:18;;;;;;;16.55;8.85;;;20.70;98.00;;;;;;5101152;27;20019;-78
2021/07/23 06:57:43;;;;;;;14.25;8.63;;;20.80;97.40;;;;;;5077806;27;20081;-78
2021/07/23 07:00:10;;;;;;;16.00;8.77;;;20.80;98.00;;;;;;5106595;27;20083;-78
2021/07/23 07:02:36;;;;;;;16.27;9.00;;;20.80;97.70;;;;;;5128086;27;20551;-78
2021/07/23 07:05:02;;;;;;;13.70;8.60;;;20.90;97.40;;;;;;5118573;27;20140;-79
2021/07/23 07:07:28;;;;;;;15.32;8.32;;;21.00;97.30;;;;;;5113523;27;20015;-78
2021/07/23 07:09:54;;;;;;;16.20;8.57;;;21.10;97.30;;;;;;5092752;27;20028;-78
2021/07/23 07:12:20;;;;;;;17.52;9.02;;;21.30;97.60;;;;;;5110120;27;20019;-79
2021/07/23 07:14:45;;;;;;;14.73;7.97;;;21.40;97.10;;;;;;5096065;27;20096;-78
2021/07/23 07:17:11;;;;;;;15.98;8.60;;;21.40;97.10;;;;;;5109119;28;20015;-78
2021/07/23 07:19:37;;;;;;;18.30;8.70;;;21.50;97.20;;;;;;5117921;27;20170;-80
2021/07/23 07:22:03;;;;;;;17.85;8.57;;;21.60;96.70;;;;;;5109819;27;20397;-84
2021/07/23 07:24:29;;;;;;;15.93;9.30;;;21.80;96.60;;;;;;5088295;28;20031;-84
2021/07/23 07:26:55;;;;;;;14.10;9.10;;;21.90;96.20;;;;;;5094537;28;20020;-84
2021/07/23 07:29:20;;;;;;;16.27;9.30;;;22.10;96.60;;;;;;5102798;28;20016;-84
2021/07/23 07:31:46;;;;;;;15.68;9.20;;;22.10;96.10;;;;;;5101138;27;20036;-85
2021/07/23 07:34:12;;;;;;;14.27;8.77;;;22.10;96.10;;;;;;5101571;27;20507;-85
2021/07/23 07:36:37;;;;;;;14.25;8.63;;;22.20;96.10;;;;;;5110638;27;20479;-83
2021/07/23 07:39:04;;;;;;;15.18;8.98;;;22.30;95.90;;;;;;5119888;27;20066;-82
2021/07/23 07:41:29;;;;;;;19.20;9.23;;;22.30;95.30;;;;;;5134509;27;20019;-83
2021/07/23 07:43:55;;;;;;;20.00;8.77;;;22.30;95.70;;;;;;5093456;28;20118;-80
2021/07/23 07:46:22;;;;;;;14.82;8.82;;;22.40;95.50;;;;;;5104158;27;20024;-80
2021/07/23 07:48:48;;;;;;;13.55;8.68;;;22.60;95.70;;;;;;5077936;28;20456;-85
2021/07/23 07:51:13;;;;;;;13.40;8.30;;;22.70;94.90;;;;;;5102369;27;20110;-85
2021/07/23 07:53:39;;;;;;;13.40;8.52;;;23.00;94.70;;;;;;5102274;27;20129;-85
2021/07/23 07:56:13;;;;;;;18.88;7.93;;;23.20;94.70;;;;;;5102170;28;20035;-85
2021/07/23 07:58:38;;;;;;;13.52;8.63;;;23.20;95.00;;;;;;5103233;27;20522;-86
2021/07/23 08:01:06;;;;;;;15.05;8.80;;;23.30;94.10;;;;;;5096086;28;20039;-85
2021/07/23 08:03:31;;;;;;;13.43;7.85;;;23.40;93.90;;;;;;5111719;27;20027;-86
2021/07/23 08:06:02;;;;;;;17.85;8.55;;;23.50;94.20;;;;;;5114543;27;20023;-85
2021/07/23 08:08:27;;;;;;;15.35;9.05;;;23.70;93.80;;;;;;5078559;28;20404;-85
2021/07/23 08:10:53;;;;;;;13.05;8.35;;;23.80;93.40;;;;;;5076684;27;20030;-85
2021/07/23 08:13:18;;;;;;;13.25;8.45;;;23.80;94.10;;;;;;5095100;27;20028;-85
2021/07/23 08:15:47;;;;;;;12.68;8.07;;;23.90;93.10;;;;;;5112791;27;20106;-85
2021/07/23 08:18:14;;;;;;;12.30;8.05;;;24.00;93.00;;;;;;5092257;28;20024;-86
2021/07/23 08:20:41;;;;;;;13.55;8.40;;;24.20;93.40;;;;;;5115420;27;20026;-85
2021/07/23 08:23:07;;;;;;;14.68;8.30;;;24.30;93.10;;;;;;5078909;27;20026;-85
2021/07/23 08:25:33;;;;;;;15.73;8.60;;;24.50;92.70;;;;;;5114180;27;20036;-85
2021/07/23 08:27:58;;;;;;;13.75;8.27;;;24.60;91.80;;;;;;5108414;27;20061;-85
2021/07/23 08:30:24;;;;;;;11.93;7.65;;;24.70;91.80;;;;;;5107495;27;20029;-85
2021/07/23 08:32:49;;;;;;;13.63;8.00;;;24.90;91.90;;;;;;5105384;27;20023;-85
2021/07/23 08:35:15;;;;;;;12.52;7.18;;;25.00;91.10;;;;;;5117584;27;20035;-85
2021/07/23 08:37:42;;;;;;;11.90;7.90;;;24.90;91.60;;;;;;5072658;28;20024;-85
2021/07/23 08:40:08;;;;;;;12.30;7.13;;;25.00;91.20;;;;;;5072800;28;20446;-85
2021/07/23 08:42:35;;;;;;;13.82;7.90;;;25.10;91.70;;;;;;5073363;28;20058;-85
2021/07/23 08:45:04;;;;;;;12.50;7.43;;;25.40;91.10;;;;;;5072642;28;20031;-86
2021/07/23 08:47:30;;;;;;;14.23;7.90;;;25.70;91.20;;;;;;5072788;28;20545;-85
2021/07/23 08:49:58;;;;;;;10.82;8.02;;;25.80;89.30;;;;;;5072529;28;20107;-86
2021/07/23 08:52:40;;;;;;;14.23;8.05;;;25.70;89.10;;;;;;5092134;27;20663;-86
2021/07/23 08:55:07;;;;;;;13.13;7.18;;;25.80;89.00;;;;;;5115923;27;20110;-86
2021/07/23 08:57:33;;;;;;;14.30;8.00;;;25.80;88.80;;;;;;5092208;28;20463;-85
2021/07/23 08:59:59;;;;;;;15.73;8.57;;;25.80;90.40;;;;;;5103632;28;20032;-85
2021/07/23 09:02:24;;;;;;;12.48;8.20;;;26.10;88.70;;;;;;5072895;28;20066;-85
2021/07/23 09:04:52;;;;;;;14.00;7.43;;;26.30;88.80;;;;;;5073010;28;20016;-86
2021/07/23 09:07:18;;;;;;;12.52;7.85;;;26.50;86.80;;;;;;5089011;28;20028;-86
2021/07/23 09:09:58;;;;;;;13.80;8.18;;;26.50;86.20;;;;;;5093867;27;20548;-84
2021/07/23 09:12:23;;;;;;;13.18;7.93;;;26.60;86.50;;;;;;5073529;28;20074;-83
2021/07/23 09:14:49;;;;;;;11.57;7.07;;;26.50;83.90;;;;;;5102993;27;20039;-83
2021/07/23 09:17:15;;;;;;;11.20;7.20;;;26.60;83.10;;;;;;5101086;27;20031;-84
2021/07/23 09:19:40;;;;;;;11.90;7.78;;;26.70;83.20;;;;;;5102130;27;20730;-83
2021/07/23 09:22:06;;;;;;;12.27;7.53;;;27.00;84.20;;;;;;5103323;27;20020;-81
2021/07/23 09:24:52;;;;;;;12.48;7.55;;;27.10;83.60;;;;;;5095512;27;20090;-81
2021/07/23 09:27:34;;;;;;;12.05;7.65;;;26.80;83.70;;;;;;5094153;27;20095;-81
2021/07/23 09:30:01;;;;;;;10.13;7.10;;;26.80;82.40;;;;;;5093637;27;20425;-81
2021/07/23 09:32:28;;;;;;;11.48;7.47;;;27.00;82.30;;;;;;5073347;28;20178;-81
2021/07/23 09:35:14;;;;;;;13.82;7.82;;;27.10;82.90;;;;;;5097366;28;20031;-81
2021/07/23 09:37:54;;;;;;;12.15;8.27;;;27.40;84.10;;;;;;5091626;28;20103;-81
2021/07/23 09:40:20;;;;;;;14.95;8.65;;;27.40;81.80;;;;;;5084431;28;20571;-81
2021/07/23 09:42:58;;;;;;;12.23;8.32;;;27.60;81.60;;;;;;5078900;28;20024;-81
2021/07/23 09:45:29;;;;;;;13.32;8.15;;;27.60;81.00;;;;;;5076857;28;20088;-83
2021/07/23 09:48:10;;;;;;;11.18;7.75;;;27.30;81.90;;;;;;5078146;28;20051;-83
2021/07/23 09:50:44;;;;;;;14.98;8.23;;;27.40;81.00;;;;;;5073833;28;20066;-83
2021/07/23 09:53:21;;;;;;;11.63;7.22;;;27.20;81.10;;;;;;5089614;28;20028;-83
2021/07/23 09:55:48;;;;;;;12.48;7.18;;;27.50;81.50;;;;;;5078279;28;20054;-84
2021/07/23 09:58:20;;;;;;;10.70;7.63;;;27.60;80.10;;;;;;5095157;28;20059;-82
2021/07/23 10:00:53;;;;;;;10.70;7.00;;;27.80;79.50;;;;;;5073283;28;20028;-82
2021/07/23 10:03:22;;;;;;;11.68;6.90;;;28.10;80.70;;;;;;5093903;28;20023;-82
2021/07/23 10:05:53;;;;;;;12.13;7.22;;;28.50;78.50;;;;;;5086889;28;20126;-87
2021/07/23 10:08:26;;;;;;;8.68;6.20;;;28.50;76.90;;;;;;5085614;28;20019;-86
2021/07/23 10:10:53;;;;;;;10.85;6.80;;;28.60;76.60;;;;;;5116306;27;20027;-86
2021/07/23 10:13:22;;;;;;;13.07;7.15;;;28.50;77.50;;;;;;5120731;27;20028;-86
2021/07/23 10:15:48;;;;;;;12.93;7.07;;;28.40;76.40;;;;;;5113986;27;20383;-88
2021/07/23 10:18:15;;;;;;;10.63;7.13;;;28.50;75.60;;;;;;5102793;27;20023;-86
2021/07/23 10:20:41;;;;;;;9.77;6.28;;;28.50;75.20;;;;;;5107204;27;20015;-84
2021/07/23 10:23:07;;;;;;;12.55;5.65;;;28.70;75.90;;;;;;5114503;27;20054;-83
2021/07/23 10:25:34;;;;;;;9.68;5.97;;;29.20;76.80;;;;;;5120917;27;20491;-83
2021/07/23 10:28:03;;;;;;;12.73;6.22;;;29.30;74.60;;;;;;5102230;27;20015;-85
2021/07/23 10:30:36;;;;;;;10.23;6.38;;;29.50;73.50;;;;;;5102191;28;20032;-83
2021/07/23 10:33:04;;;;;;;10.13;6.78;;;28.80;73.90;;;;;;5104758;27;20031;-84
2021/07/23 10:35:32;;;;;;;9.25;6.35;;;28.90;74.20;;;;;;5128664;27;20035;-84
2021/07/23 10:37:59;;;;;;;11.30;6.78;;;28.70;74.20;;;;;;5095285;28;20024;-86
2021/07/23 10:40:33;;;;;;;10.07;6.30;;;28.60;75.10;;;;;;5096785;27;20130;-86
2021/07/23 10:42:59;;;;;;;9.32;6.15;;;29.00;75.90;;;;;;5115874;27;20475;-86
2021/07/23 10:45:41;;;;;;;10.32;7.38;;;29.00;75.10;;;;;;5107031;28;20099;-86
2021/07/23 10:48:07;;;;;;;9.07;5.50;;;29.50;75.40;;;;;;5105010;27;20020;-86
2021/07/23 10:50:39;;;;;;;10.13;6.72;;;29.70;74.40;;;;;;5113767;27;20051;-87
2021/07/23 10:53:27;;;;;;;9.50;6.13;;;29.80;74.10;;;;;;5110193;27;20028;-86
2021/07/23 10:55:53;;;;;;;9.07;6.32;;;30.20;74.10;;;;;;5105011;27;20536;-86
2021/07/23 10:58:18;;;;;;;10.43;6.13;;;30.40;72.30;;;;;;5096342;28;20420;-86
2021/07/23 11:00:50;;;;;;;8.98;6.20;;;30.20;71.90;;;;;;5095149;28;20030;-86
2021/07/23 11:03:37;;;;;;;9.82;6.70;;;30.40;72.30;;;;;;5113634;28;20361;-86
2021/07/23 11:06:27;;;;;;;12.40;6.68;;;30.40;72.10;;;;;;5112009;28;20020;-86
2021/07/23 11:08:54;;;;;;;9.13;6.22;;;29.90;71.10;;;;;;5089589;28;20667;-86
2021/07/23 11:11:25;;;;;;;7.90;5.95;;;30.20;72.80;;;;;;5100358;27;20016;-86
2021/07/23 11:13:50;;;;;;;9.93;6.68;;;30.30;72.80;;;;;;5093111;27;20035;-86
2021/07/23 11:16:18;;;;;;;10.68;6.72;;;30.50;71.20;;;;;;5074909;28;20028;-86
2021/07/23 11:18:54;;;;;;;8.70;6.35;;;30.60;70.20;;;;;;5092513;28;20031;-86
2021/07/23 11:21:20;;;;;;;8.50;6.68;;;30.50;70.30;;;;;;5093497;27;20030;-86
2021/07/23 11:23:47;;;;;;;13.45;6.32;;;30.50;69.80;;;;;;5098348;27;20122;-85
2021/07/23 11:26:22;;;;;;;9.90;6.28;;;30.90;69.10;;;;;;5109900;27;20016;-86
2021/07/23 11:28:56;;;;;;;9.30;5.63;;;30.90;68.70;;;;;;5092513;28;20024;-86
2021/07/23 11:31:39;;;;;;;11.20;6.20;;;31.40;68.60;;;;;;5088629;28;20028;-85
2021/07/23 11:34:22;;;;;;;9.60;6.30;;;31.40;68.50;;;;;;5100076;27;20019;-84
2021/07/23 11:36:49;;;;;;;10.15;6.07;;;31.20;67.20;;;;;;5110622;27;20429;-84
2021/07/23 11:39:14;;;;;;;9.98;5.93;;;30.80;66.80;;;;;;5105709;27;20019;-84
2021/07/23 11:42:01;;;;;;;10.20;6.00;;;30.60;67.30;;;;;;5106994;28;20035;-82
2021/07/23 11:44:27;;;;;;;11.70;6.20;;;30.60;66.10;;;;;;5094519;27;20108;-82
2021/07/23 11:46:54;;;;;;;9.57;5.95;;;30.30;67.00;;;;;;5075482;27;20035;-82
2021/07/23 11:49:20;;;;;;;8.70;5.72;;;30.20;69.00;;;;;;5098772;27;20012;-82
2021/07/23 11:51:47;;;;;;;9.43;5.78;;;30.40;68.60;;;;;;5093056;28;20033;-82
2021/07/23 11:54:19;;;;;;;10.13;6.65;;;30.90;69.50;;;;;;5096545;27;20487;-83
2021/07/23 11:56:45;;;;;;;12.00;6.07;;;30.50;65.50;;;;;;5111430;27;20505;-83
2021/07/23 11:59:11;;;;;;;9.05;6.43;;;30.60;66.40;;;;;;5093512;27;20103;-83
2021/07/23 12:01:39;;;;;;;10.35;5.75;;;30.20;66.40;;;;;;5109173;27;20050;-83
2021/07/23 12:04:07;;;;;;;8.95;6.40;;;29.80;67.10;;;;;;5114319;27;20096;-84
2021/07/23 12:06:33;;;;;;;8.70;6.13;;;29.90;65.90;;;;;;5129038;27;20068;-82
2021/07/23 12:09:04;;;;;;;9.68;5.60;;;30.20;67.70;;;;;;5126071;27;20035;-83
2021/07/23 12:11:31;;;;;;;8.65;5.88;;;30.50;66.10;;;;;;5105733;27;20031;-85
2021/07/23 12:14:07;;;;;;;10.07;6.15;;;30.90;66.20;;;;;;5108955;28;20016;-83
2021/07/23 12:16:33;;;;;;;9.27;5.78;;;30.90;64.90;;;;;;5125883;27;20019;-84
2021/07/23 12:19:08;;;;;;;9.07;5.80;;;31.40;65.40;;;;;;5114519;27;20575;-84
2021/07/23 12:21:35;;;;;;;9.98;5.95;;;31.60;64.80;;;;;;5113622;27;20023;-84
2021/07/23 12:24:04;;;;;;;9.27;6.03;;;31.60;63.70;;;;;;5102436;27;20022;-84
2021/07/23 12:26:41;;;;;;;9.40;6.05;;;31.10;63.40;;;;;;5122169;27;20026;-83
2021/07/23 12:29:09;;;;;;;9.07;5.88;;;30.80;64.40;;;;;;5114310;27;20102;-83
2021/07/23 12:31:37;;;;;;;9.05;5.93;;;30.40;64.60;;;;;;5099981;28;20015;-84
2021/07/23 12:34:07;;;;;;;10.75;6.18;;;31.20;65.50;;;;;;5115177;27;20015;-83
2021/07/23 12:36:46;;;;;;;11.73;6.32;;;31.50;64.80;;;;;;5107854;28;20027;-85
2021/07/23 12:39:15;;;;;;;9.23;5.97;;;31.50;62.80;;;;;;5093740;28;20016;-86